sensor_id;sensor_type;location;lat;lon;timestamp;pressure;altitude;pressure_sealevel;temperature;humidity
70304;BME280;57712;48.752;11.348;2022-11-14T00:00:58;97637.91;;;3.06;100.00
70304;BME280;57712;48.752;11.348;2022-11-14T00:03:25;97644.97;;;3.14;100.00
70304;BME280;57712;48.752;11.348;2022-11-14T00:05:51;97647.97;;;3.09;100.00
70304;BME280;57712;48.752;11.348;2022-11-14T00:08:22;97646.28;;;2.97;100.00
70304;BME280;57712;48.752;11.348;2022-11-14T00:10:50;97645.50;;;2.97;100.00
70304;BME280;57712;48.752;11.348;2022-11-14T00:13:19;97642.59;;;2.82;100.00
70304;BME280;57712;48.752;11.348;2022-11-14T00:15:51;97643.53;;;2.94;100.00
70304;BME280;57712;48.752;11.348;2022-11-14T00:18:21;97638.78;;;3.13;100.00
70304;BME280;57712;48.752;11.348;2022-11-14T00:20:51;97632.47;;;3.06;100.00
70304;BME280;57712;48.752;11.348;2022-11-14T00:23:19;97634.09;;;3.10;100.00
70304;BME280;57712;48.752;11.348;2022-11-14T00:25:46;97636.41;;;3.12;100.00
70304;BME280;57712;48.752;11.348;2022-11-14T00:28:12;97637.16;;;3.09;100.00
70304;BME280;57712;48.752;11.348;2022-11-14T00:30:39;97644.22;;;3.17;100.00
70304;BME280;57712;48.752;11.348;2022-11-14T00:33:06;97641.16;;;3.18;100.00
70304;BME280;57712;48.752;11.348;2022-11-14T00:35:32;97636.34;;;3.05;100.00
70304;BME280;57712;48.752;11.348;2022-11-14T00:37:59;97639.97;;;3.16;100.00
70304;BME280;57712;48.752;11.348;2022-11-14T00:40:25;97646.47;;;3.11;100.00
70304;BME280;57712;48.752;11.348;2022-11-14T00:42:52;97645.75;;;3.14;100.00
70304;BME280;57712;48.752;11.348;2022-11-14T00:45:18;97643.44;;;3.16;100.00
70304;BME280;57712;48.752;11.348;2022-11-14T00:47:45;97640.56;;;3.32;100.00
70304;BME280;57712;48.752;11.348;2022-11-14T00:50:11;97652.88;;;3.26;100.00
70304;BME280;57712;48.752;11.348;2022-11-14T00:52:38;97645.56;;;3.30;100.00
70304;BME280;57712;48.752;11.348;2022-11-14T00:55:05;97642.06;;;3.30;100.00
70304;BME280;57712;48.752;11.348;2022-11-14T00:57:31;97646.09;;;3.43;100.00
70304;BME280;57712;48.752;11.348;2022-11-14T00:59:58;97646.81;;;3.36;100.00
70304;BME280;57712;48.752;11.348;2022-11-14T01:02:24;97650.81;;;3.46;100.00
70304;BME280;57712;48.752;11.348;2022-11-14T01:04:51;97645.09;;;3.55;100.00
70304;BME280;57712;48.752;11.348;2022-11-14T01:07:17;97637.88;;;3.66;100.00
70304;BME280;57712;48.752;11.348;2022-11-14T01:09:44;97625.50;;;3.65;100.00
70304;BME280;57712;48.752;11.348;2022-11-14T01:12:10;97617.03;;;3.70;100.00
70304;BME280;57712;48.752;11.348;2022-11-14T01:14:38;97624.50;;;3.80;100.00
70304;BME280;57712;48.752;11.348;2022-11-14T01:17:05;97623.34;;;3.81;100.00
70304;BME280;57712;48.752;11.348;2022-11-14T01:19:32;97618.63;;;3.74;100.00
70304;BME280;57712;48.752;11.348;2022-11-14T01:21:59;97617.53;;;3.83;100.00
70304;BME280;57712;48.752;11.348;2022-11-14T01:24:32;97631.59;;;3.92;100.00
70304;BME280;57712;48.752;11.348;2022-11-14T01:26:59;97634.00;;;4.00;100.00
70304;BME280;57712;48.752;11.348;2022-11-14T01:29:26;97633.13;;;3.93;100.00
70304;BME280;57712;48.752;11.348;2022-11-14T01:31:53;97633.50;;;3.91;100.00
70304;BME280;57712;48.752;11.348;2022-11-14T01:34:20;97635.34;;;3.80;100.00
70304;BME280;57712;48.752;11.348;2022-11-14T01:36:46;97626.13;;;3.88;100.00
70304;BME280;57712;48.752;11.348;2022-11-14T01:39:13;97616.94;;;3.96;100.00
70304;BME280;57712;48.752;11.348;2022-11-14T01:41:39;97621.31;;;4.12;100.00
70304;BME280;57712;48.752;11.348;2022-11-14T01:44:14;97616.59;;;4.05;100.00
70304;BME280;57712;48.752;11.348;2022-11-14T01:46:45;97620.63;;;4.18;100.00
70304;BME280;57712;48.752;11.348;2022-11-14T01:49:37;97629.09;;;4.17;100.00
70304;BME280;57712;48.752;11.348;2022-11-14T01:52:06;97628.22;;;4.05;100.00
70304;BME280;57712;48.752;11.348;2022-11-14T01:54:43;97624.06;;;4.15;100.00
70304;BME280;57712;48.752;11.348;2022-11-14T01:57:11;97633.31;;;4.11;100.00
70304;BME280;57712;48.752;11.348;2022-11-14T01:59:43;97619.91;;;4.25;100.00
70304;BME280;57712;48.752;11.348;2022-11-14T02:02:18;97618.69;;;4.19;100.00
70304;BME280;57712;48.752;11.348;2022-11-14T02:04:49;97624.53;;;4.24;100.00
70304;BME280;57712;48.752;11.348;2022-11-14T02:07:17;97619.94;;;4.28;100.00
70304;BME280;57712;48.752;11.348;2022-11-14T02:09:45;97610.28;;;4.34;100.00
70304;BME280;57712;48.752;11.348;2022-11-14T02:12:14;97612.53;;;4.25;100.00
70304;BME280;57712;48.752;11.348;2022-11-14T02:14:43;97619.94;;;4.28;100.00
70304;BME280;57712;48.752;11.348;2022-11-14T02:17:11;97613.66;;;4.17;100.00
70304;BME280;57712;48.752;11.348;2022-11-14T02:22:31;97615.81;;;4.04;100.00
70304;BME280;57712;48.752;11.348;2022-11-14T02:24:57;97616.72;;;4.16;100.00
70304;BME280;57712;48.752;11.348;2022-11-14T02:27:24;97629.19;;;4.24;100.00
70304;BME280;57712;48.752;11.348;2022-11-14T02:29:50;97633.44;;;4.25;100.00
70304;BME280;57712;48.752;11.348;2022-11-14T02:32:16;97628.44;;;4.27;100.00
70304;BME280;57712;48.752;11.348;2022-11-14T02:34:43;97615.31;;;4.32;100.00
70304;BME280;57712;48.752;11.348;2022-11-14T02:37:10;97612.28;;;4.41;100.00
70304;BME280;57712;48.752;11.348;2022-11-14T02:39:36;97621.09;;;4.27;100.00
70304;BME280;57712;48.752;11.348;2022-11-14T02:42:02;97622.19;;;4.23;100.00
70304;BME280;57712;48.752;11.348;2022-11-14T02:44:29;97608.94;;;4.11;100.00
70304;BME280;57712;48.752;11.348;2022-11-14T02:46:56;97614.88;;;4.27;100.00
70304;BME280;57712;48.752;11.348;2022-11-14T02:49:22;97612.59;;;4.29;100.00
70304;BME280;57712;48.752;11.348;2022-11-14T02:51:49;97618.22;;;4.10;100.00
70304;BME280;57712;48.752;11.348;2022-11-14T02:54:15;97615.13;;;4.11;100.00
70304;BME280;57712;48.752;11.348;2022-11-14T02:56:41;97612.50;;;4.22;100.00
70304;BME280;57712;48.752;11.348;2022-11-14T02:59:08;97612.50;;;4.22;100.00
70304;BME280;57712;48.752;11.348;2022-11-14T03:01:34;97601.28;;;4.20;100.00
70304;BME280;57712;48.752;11.348;2022-11-14T03:04:02;97590.47;;;4.27;100.00
70304;BME280;57712;48.752;11.348;2022-11-14T03:06:28;97590.53;;;4.34;100.00
70304;BME280;57712;48.752;11.348;2022-11-14T03:08:55;97577.38;;;4.36;100.00
70304;BME280;57712;48.752;11.348;2022-11-14T03:11:21;97588.28;;;4.43;100.00
70304;BME280;57712;48.752;11.348;2022-11-14T03:13:48;97597.97;;;4.44;100.00
70304;BME280;57712;48.752;11.348;2022-11-14T03:16:14;97594.47;;;4.40;100.00
70304;BME280;57712;48.752;11.348;2022-11-14T03:18:41;97589.38;;;4.35;100.00
70304;BME280;57712;48.752;11.348;2022-11-14T03:21:09;97586.78;;;4.49;100.00
70304;BME280;57712;48.752;11.348;2022-11-14T03:23:36;97587.22;;;4.55;100.00
70304;BME280;57712;48.752;11.348;2022-11-14T03:26:05;97596.78;;;4.38;100.00
70304;BME280;57712;48.752;11.348;2022-11-14T03:28:33;97597.59;;;4.42;100.00
70304;BME280;57712;48.752;11.348;2022-11-14T03:31:00;97599.13;;;4.43;100.00
70304;BME280;57712;48.752;11.348;2022-11-14T03:33:26;97593.00;;;4.53;100.00
70304;BME280;57712;48.752;11.348;2022-11-14T03:35:53;97602.28;;;4.49;100.00
70304;BME280;57712;48.752;11.348;2022-11-14T03:38:20;97592.16;;;4.42;100.00
70304;BME280;57712;48.752;11.348;2022-11-14T03:40:50;97598.38;;;4.46;100.00
70304;BME280;57712;48.752;11.348;2022-11-14T03:43:18;97593.72;;;4.43;100.00
70304;BME280;57712;48.752;11.348;2022-11-14T03:45:45;97592.16;;;4.42;100.00
70304;BME280;57712;48.752;11.348;2022-11-14T03:48:12;97590.59;;;4.41;100.00
70304;BME280;57712;48.752;11.348;2022-11-14T03:50:40;97590.66;;;4.48;100.00
70304;BME280;57712;48.752;11.348;2022-11-14T03:53:07;97587.50;;;4.43;100.00
70304;BME280;57712;48.752;11.348;2022-11-14T03:55:33;97582.47;;;4.41;100.00
70304;BME280;57712;48.752;11.348;2022-11-14T03:58:00;97590.25;;;4.46;100.00
70304;BME280;57712;48.752;11.348;2022-11-14T04:00:26;97573.19;;;4.46;100.00
70304;BME280;57712;48.752;11.348;2022-11-14T04:02:55;97570.06;;;4.40;100.00
70304;BME280;57712;48.752;11.348;2022-11-14T04:05:22;97569.38;;;4.50;100.00
70304;BME280;57712;48.752;11.348;2022-11-14T04:07:50;97571.63;;;4.41;100.00
70304;BME280;57712;48.752;11.348;2022-11-14T04:10:17;97573.50;;;4.37;100.00
70304;BME280;57712;48.752;11.348;2022-11-14T04:12:51;97581.72;;;4.44;100.00
70304;BME280;57712;48.752;11.348;2022-11-14T04:15:18;97577.81;;;4.38;100.00
70304;BME280;57712;48.752;11.348;2022-11-14T04:17:45;97575.13;;;4.45;100.00
70304;BME280;57712;48.752;11.348;2022-11-14T04:20:13;97580.50;;;4.38;100.00
70304;BME280;57712;48.752;11.348;2022-11-14T04:22:40;97574.72;;;4.40;100.00
70304;BME280;57712;48.752;11.348;2022-11-14T04:25:07;97578.13;;;4.33;100.00
70304;BME280;57712;48.752;11.348;2022-11-14T04:27:34;97586.66;;;4.31;100.00
70304;BME280;57712;48.752;11.348;2022-11-14T04:30:01;97591.31;;;4.34;100.00
70304;BME280;57712;48.752;11.348;2022-11-14T04:32:28;97575.81;;;4.35;100.00
70304;BME280;57712;48.752;11.348;2022-11-14T04:34:54;97573.16;;;4.39;100.00
70304;BME280;57712;48.752;11.348;2022-11-14T04:37:21;97576.97;;;4.34;100.00
70304;BME280;57712;48.752;11.348;2022-11-14T04:39:48;97592.09;;;4.35;100.00
70304;BME280;57712;48.752;11.348;2022-11-14T04:42:14;97587.53;;;4.46;100.00
70304;BME280;57712;48.752;11.348;2022-11-14T04:44:41;97591.38;;;4.38;100.00
70304;BME280;57712;48.752;11.348;2022-11-14T04:47:07;97589.06;;;4.44;100.00
70304;BME280;57712;48.752;11.348;2022-11-14T04:49:34;97588.19;;;4.29;100.00
70304;BME280;57712;48.752;11.348;2022-11-14T04:52:00;97580.38;;;4.24;100.00
70304;BME280;57712;48.752;11.348;2022-11-14T04:54:27;97588.19;;;4.32;100.00
70304;BME280;57712;48.752;11.348;2022-11-14T04:56:53;97596.03;;;4.45;100.00
70304;BME280;57712;48.752;11.348;2022-11-14T04:59:20;97596.75;;;4.34;100.00
70304;BME280;57712;48.752;11.348;2022-11-14T05:01:46;97607.16;;;4.29;100.00
70304;BME280;57712;48.752;11.348;2022-11-14T05:04:13;97606.00;;;4.30;100.00
70304;BME280;57712;48.752;11.348;2022-11-14T05:06:40;97597.22;;;4.47;100.00
70304;BME280;57712;48.752;11.348;2022-11-14T05:09:06;97593.31;;;4.41;100.00
70304;BME280;57712;48.752;11.348;2022-11-14T05:11:33;97589.38;;;4.31;100.00
70304;BME280;57712;48.752;11.348;2022-11-14T05:13:59;97591.44;;;4.49;100.00
70304;BME280;57712;48.752;11.348;2022-11-14T05:16:26;97589.06;;;4.44;100.00
70304;BME280;57712;48.752;11.348;2022-11-14T05:18:53;97583.94;;;4.31;100.00
70304;BME280;57712;48.752;11.348;2022-11-14T05:21:20;97573.94;;;4.39;100.00
70304;BME280;57712;48.752;11.348;2022-11-14T05:23:46;97571.69;;;4.52;100.00
70304;BME280;57712;48.752;11.348;2022-11-14T05:26:15;97559.69;;;4.49;100.00
70304;BME280;57712;48.752;11.348;2022-11-14T05:28:42;97571.72;;;4.55;100.00
70304;BME280;57712;48.752;11.348;2022-11-14T05:31:11;97570.53;;;4.49;100.00
70304;BME280;57712;48.752;11.348;2022-11-14T05:33:39;97569.06;;;4.62;100.00
70304;BME280;57712;48.752;11.348;2022-11-14T05:36:07;97557.81;;;4.64;100.00
70304;BME280;57712;48.752;11.348;2022-11-14T05:38:34;97547.81;;;4.72;100.00
70304;BME280;57712;48.752;11.348;2022-11-14T05:41:05;97544.31;;;4.71;100.00
70304;BME280;57712;48.752;11.348;2022-11-14T05:43:32;97533.41;;;4.68;100.00
70304;BME280;57712;48.752;11.348;2022-11-14T05:46:04;97531.09;;;4.66;100.00
70304;BME280;57712;48.752;11.348;2022-11-14T05:48:31;97528.81;;;4.72;100.00
70304;BME280;57712;48.752;11.348;2022-11-14T05:51:00;97521.84;;;4.71;100.00
70304;BME280;57712;48.752;11.348;2022-11-14T05:53:28;97522.88;;;4.52;100.00
70304;BME280;57712;48.752;11.348;2022-11-14T05:55:59;97517.13;;;4.64;100.00
70304;BME280;57712;48.752;11.348;2022-11-14T05:58:27;97528.81;;;4.75;100.00
70304;BME280;57712;48.752;11.348;2022-11-14T06:01:05;97552.84;;;4.73;100.00
70304;BME280;57712;48.752;11.348;2022-11-14T06:03:40;97580.53;;;4.42;100.00
70304;BME280;57712;48.752;11.348;2022-11-14T06:06:09;97580.22;;;4.50;100.00
70304;BME280;57712;48.752;11.348;2022-11-14T06:08:35;97624.59;;;4.28;100.00
70304;BME280;57712;48.752;11.348;2022-11-14T06:11:04;97600.31;;;4.46;100.00
70304;BME280;57712;48.752;11.348;2022-11-14T06:13:31;97601.47;;;4.45;100.00
70304;BME280;57712;48.752;11.348;2022-11-14T06:16:00;97592.94;;;4.46;100.00
70304;BME280;57712;48.752;11.348;2022-11-14T06:18:28;97591.78;;;4.47;100.00
70304;BME280;57712;48.752;11.348;2022-11-14T06:20:59;97609.88;;;4.29;100.00
70304;BME280;57712;48.752;11.348;2022-11-14T06:23:26;97611.53;;;4.41;100.00
70304;BME280;57712;48.752;11.348;2022-11-14T06:26:03;97622.31;;;4.37;100.00
70304;BME280;57712;48.752;11.348;2022-11-14T06:28:30;97651.28;;;4.26;100.00
70304;BME280;57712;48.752;11.348;2022-11-14T06:30:58;97648.56;;;4.26;100.00
70304;BME280;57712;48.752;11.348;2022-11-14T06:33:26;97645.06;;;4.22;100.00
70304;BME280;57712;48.752;11.348;2022-11-14T06:35:58;97640.66;;;4.07;100.00
70304;BME280;57712;48.752;11.348;2022-11-14T06:38:25;97644.97;;;4.15;100.00
70304;BME280;57712;48.752;11.348;2022-11-14T06:40:51;97635.38;;;4.24;100.00
70304;BME280;57712;48.752;11.348;2022-11-14T06:43:18;97633.13;;;4.30;100.00
70304;BME280;57712;48.752;11.348;2022-11-14T06:45:44;97637.72;;;4.26;100.00
70304;BME280;57712;48.752;11.348;2022-11-14T06:48:11;97645.81;;;4.19;100.00
70304;BME280;57712;48.752;11.348;2022-11-14T06:50:37;97653.88;;;4.15;100.00
70304;BME280;57712;48.752;11.348;2022-11-14T06:53:04;97669.44;;;4.22;100.00
70304;BME280;57712;48.752;11.348;2022-11-14T06:55:30;97677.19;;;4.20;100.00
70304;BME280;57712;48.752;11.348;2022-11-14T06:57:57;97668.66;;;4.18;100.00
70304;BME280;57712;48.752;11.348;2022-11-14T07:00:23;97670.88;;;4.09;100.00
70304;BME280;57712;48.752;11.348;2022-11-14T07:02:50;97670.22;;;4.22;100.00
70304;BME280;57712;48.752;11.348;2022-11-14T07:05:16;97671.13;;;3.96;100.00
70304;BME280;57712;48.752;11.348;2022-11-14T07:07:42;97659.91;;;3.98;100.00
70304;BME280;57712;48.752;11.348;2022-11-14T07:10:09;97672.03;;;4.08;100.00
70304;BME280;57712;48.752;11.348;2022-11-14T07:12:35;97672.44;;;4.10;100.00
70304;BME280;57712;48.752;11.348;2022-11-14T07:15:02;97674.66;;;4.00;100.00
70304;BME280;57712;48.752;11.348;2022-11-14T07:17:28;97676.47;;;3.89;100.00
70304;BME280;57712;48.752;11.348;2022-11-14T07:19:56;97676.13;;;3.94;100.00
70304;BME280;57712;48.752;11.348;2022-11-14T07:22:23;97673.56;;;3.75;100.00
70304;BME280;57712;48.752;11.348;2022-11-14T07:24:49;97678.19;;;3.71;100.00
70304;BME280;57712;48.752;11.348;2022-11-14T07:27:16;97662.75;;;3.75;100.00
70304;BME280;57712;48.752;11.348;2022-11-14T07:29:42;97670.00;;;4.01;100.00
70304;BME280;57712;48.752;11.348;2022-11-14T07:32:08;97673.75;;;3.89;100.00
70304;BME280;57712;48.752;11.348;2022-11-14T07:34:35;97667.28;;;4.01;100.00
70304;BME280;57712;48.752;11.348;2022-11-14T07:37:01;97666.25;;;3.75;100.00
70304;BME280;57712;48.752;11.348;2022-11-14T07:39:28;97666.44;;;3.93;100.00
70304;BME280;57712;48.752;11.348;2022-11-14T07:41:54;97662.09;;;3.85;100.00
70304;BME280;57712;48.752;11.348;2022-11-14T07:44:21;97654.44;;;3.94;100.00
70304;BME280;57712;48.752;11.348;2022-11-14T07:46:47;97645.28;;;4.06;100.00
70304;BME280;57712;48.752;11.348;2022-11-14T07:49:15;97647.34;;;4.20;100.00
70304;BME280;57712;48.752;11.348;2022-11-14T07:51:42;97648.53;;;4.22;100.00
70304;BME280;57712;48.752;11.348;2022-11-14T07:54:10;97637.72;;;4.26;100.00
70304;BME280;57712;48.752;11.348;2022-11-14T07:56:36;97619.78;;;4.14;100.00
70304;BME280;57712;48.752;11.348;2022-11-14T07:59:03;97626.06;;;4.22;100.00
70304;BME280;57712;48.752;11.348;2022-11-14T08:01:29;97615.31;;;4.32;100.00
70304;BME280;57712;48.752;11.348;2022-11-14T08:03:56;97611.53;;;4.44;100.00
70304;BME280;57712;48.752;11.348;2022-11-14T08:06:22;97612.91;;;4.24;100.00
70304;BME280;57712;48.752;11.348;2022-11-14T08:08:48;97613.78;;;4.35;100.00
70304;BME280;57712;48.752;11.348;2022-11-14T08:11:15;97620.84;;;4.43;100.00
70304;BME280;57712;48.752;11.348;2022-11-14T08:14:01;97624.63;;;4.35;100.00
70304;BME280;57712;48.752;11.348;2022-11-14T08:16:28;97621.59;;;4.40;100.00
70304;BME280;57712;48.752;11.348;2022-11-14T08:18:55;97611.59;;;4.51;100.00
70304;BME280;57712;48.752;11.348;2022-11-14T08:21:21;97609.38;;;4.68;100.00
70304;BME280;57712;48.752;11.348;2022-11-14T08:23:48;97607.66;;;4.45;100.00
70304;BME280;57712;48.752;11.348;2022-11-14T08:26:14;97607.03;;;4.59;100.00
70304;BME280;57712;48.752;11.348;2022-11-14T08:28:41;97607.78;;;4.59;100.00
70304;BME280;57712;48.752;11.348;2022-11-14T08:31:07;97602.91;;;4.28;100.00
70304;BME280;57712;48.752;11.348;2022-11-14T08:33:35;97607.03;;;4.15;100.00
70304;BME280;57712;48.752;11.348;2022-11-14T08:36:02;97603.75;;;4.39;100.00
70304;BME280;57712;48.752;11.348;2022-11-14T08:38:30;97601.75;;;4.29;100.00
70304;BME280;57712;48.752;11.348;2022-11-14T08:41:01;97593.38;;;4.48;100.00
70304;BME280;57712;48.752;11.348;2022-11-14T08:43:29;97598.16;;;4.18;100.00
70304;BME280;57712;48.752;11.348;2022-11-14T08:45:57;97613.59;;;4.14;100.00
70304;BME280;57712;48.752;11.348;2022-11-14T08:48:27;97611.38;;;4.26;100.00
70304;BME280;57712;48.752;11.348;2022-11-14T08:50:54;97595.91;;;4.27;100.00
70304;BME280;57712;48.752;11.348;2022-11-14T08:53:21;97599.41;;;4.27;100.00
70304;BME280;57712;48.752;11.348;2022-11-14T08:55:47;97599.75;;;4.26;100.00
70304;BME280;57712;48.752;11.348;2022-11-14T08:58:15;97601.44;;;4.41;100.00
70304;BME280;57712;48.752;11.348;2022-11-14T09:00:41;97597.97;;;4.44;100.00
70304;BME280;57712;48.752;11.348;2022-11-14T09:03:09;97608.59;;;4.63;100.00
70304;BME280;57712;48.752;11.348;2022-11-14T09:05:35;97621.84;;;4.76;100.00
70304;BME280;57712;48.752;11.348;2022-11-14T09:08:02;97606.66;;;4.68;100.00
70304;BME280;57712;48.752;11.348;2022-11-14T09:10:29;97610.34;;;4.97;100.00
70304;BME280;57712;48.752;11.348;2022-11-14T09:12:58;97610.47;;;5.11;100.00
70304;BME280;57712;48.752;11.348;2022-11-14T09:15:29;97618.97;;;5.09;100.00
70304;BME280;57712;48.752;11.348;2022-11-14T09:17:56;97630.25;;;5.18;100.00
70304;BME280;57712;48.752;11.348;2022-11-14T09:20:23;97631.91;;;5.34;100.00
70304;BME280;57712;48.752;11.348;2022-11-14T09:22:59;97635.78;;;5.40;100.00
70304;BME280;57712;48.752;11.348;2022-11-14T09:25:26;97631.63;;;5.53;100.00
70304;BME280;57712;48.752;11.348;2022-11-14T09:27:52;97636.94;;;5.32;100.00
70304;BME280;57712;48.752;11.348;2022-11-14T09:30:19;97637.72;;;5.36;100.00
70304;BME280;57712;48.752;11.348;2022-11-14T09:32:48;97623.66;;;5.19;100.00
70304;BME280;57712;48.752;11.348;2022-11-14T09:35:15;97629.03;;;5.05;100.00
70304;BME280;57712;48.752;11.348;2022-11-14T09:37:41;97627.25;;;4.72;100.00
70304;BME280;57712;48.752;11.348;2022-11-14T09:40:11;97639.66;;;4.70;100.00
70304;BME280;57712;48.752;11.348;2022-11-14T09:42:54;97652.91;;;4.82;100.00
70304;BME280;57712;48.752;11.348;2022-11-14T09:45:23;97660.00;;;4.97;100.00
70304;BME280;57712;48.752;11.348;2022-11-14T09:48:03;97666.34;;;4.64;100.00
70304;BME280;57712;48.752;11.348;2022-11-14T09:50:36;97668.56;;;5.03;100.00
70304;BME280;57712;48.752;11.348;2022-11-14T09:53:49;97658.63;;;5.28;100.00
70304;BME280;57712;48.752;11.348;2022-11-14T09:56:23;97646.22;;;5.31;100.00
70304;BME280;57712;48.752;11.348;2022-11-14T09:58:52;97643.91;;;5.29;100.00
70304;BME280;57712;48.752;11.348;2022-11-14T10:02:15;97652.56;;;5.56;100.00
70304;BME280;57712;48.752;11.348;2022-11-14T10:07:08;97648.63;;;5.43;100.00
70304;BME280;57712;48.752;11.348;2022-11-14T10:09:53;97659.34;;;5.14;100.00
70304;BME280;57712;48.752;11.348;2022-11-14T10:12:44;97662.56;;;5.38;100.00
70304;BME280;57712;48.752;11.348;2022-11-14T10:15:25;97653.78;;;5.69;100.00
70304;BME280;57712;48.752;11.348;2022-11-14T10:18:39;97656.00;;;5.42;100.00
70304;BME280;57712;48.752;11.348;2022-11-14T10:26:46;97668.66;;;5.93;100.00
70304;BME280;57712;48.752;11.348;2022-11-14T10:29:49;97652.72;;;5.92;100.00
70304;BME280;57712;48.752;11.348;2022-11-14T10:35:22;97655.88;;;6.08;100.00
70304;BME280;57712;48.752;11.348;2022-11-14T10:40:46;97643.47;;;6.21;100.00
70304;BME280;57712;48.752;11.348;2022-11-14T10:44:02;97636.06;;;6.11;100.00
70304;BME280;57712;48.752;11.348;2022-11-14T10:46:11;97633.34;;;6.11;100.00
70304;BME280;57712;48.752;11.348;2022-11-14T10:48:41;97629.47;;;6.23;100.00
70304;BME280;57712;48.752;11.348;2022-11-14T10:54:05;97648.50;;;6.05;100.00
70304;BME280;57712;48.752;11.348;2022-11-14T10:56:46;97644.66;;;6.20;100.00
70304;BME280;57712;48.752;11.348;2022-11-14T10:59:13;97657.03;;;5.96;100.00
70304;BME280;57712;48.752;11.348;2022-11-14T11:01:44;97661.25;;;5.87;100.00
70304;BME280;57712;48.752;11.348;2022-11-14T11:06:47;97670.25;;;6.05;100.00
70304;BME280;57712;48.752;11.348;2022-11-14T11:09:20;97678.72;;;5.89;100.00
70304;BME280;57712;48.752;11.348;2022-11-14T11:12:17;97690.03;;;6.02;100.00
70304;BME280;57712;48.752;11.348;2022-11-14T11:14:45;97700.97;;;6.16;100.00
70304;BME280;57712;48.752;11.348;2022-11-14T11:17:15;97707.22;;;6.34;100.00
70304;BME280;57712;48.752;11.348;2022-11-14T11:19:44;97697.84;;;6.14;100.00
70304;BME280;57712;48.752;11.348;2022-11-14T11:22:27;97698.66;;;6.18;100.00
70304;BME280;57712;48.752;11.348;2022-11-14T11:24:54;97702.66;;;5.62;100.00
70304;BME280;57712;48.752;11.348;2022-11-14T11:30:19;97698.47;;;5.83;100.00
70304;BME280;57712;48.752;11.348;2022-11-14T11:32:46;97695.38;;;5.80;100.00
70304;BME280;57712;48.752;11.348;2022-11-14T11:35:14;97698.09;;;5.77;100.00
70304;BME280;57712;48.752;11.348;2022-11-14T11:37:45;97706.34;;;5.98;100.00
70304;BME280;57712;48.752;11.348;2022-11-14T11:40:16;97703.28;;;6.14;100.00
70304;BME280;57712;48.752;11.348;2022-11-14T11:42:48;97697.13;;;6.28;100.00
70304;BME280;57712;48.752;11.348;2022-11-14T11:45:37;97686.88;;;5.86;100.00
70304;BME280;57712;48.752;11.348;2022-11-14T11:48:16;97691.25;;;6.08;100.00
70304;BME280;57712;48.752;11.348;2022-11-14T11:50:43;97693.22;;;6.18;100.00
70304;BME280;57712;48.752;11.348;2022-11-14T11:53:33;97695.47;;;6.02;100.00
70304;BME280;57712;48.752;11.348;2022-11-14T11:56:09;97687.84;;;6.50;100.00
70304;BME280;57712;48.752;11.348;2022-11-14T11:58:42;97685.50;;;6.52;100.00
70304;BME280;57712;48.752;11.348;2022-11-14T12:01:15;97683.94;;;6.51;100.00
70304;BME280;57712;48.752;11.348;2022-11-14T12:03:51;97675.41;;;6.78;100.00
70304;BME280;57712;48.752;11.348;2022-11-14T12:06:20;97667.59;;;6.44;100.00
70304;BME280;57712;48.752;11.348;2022-11-14T12:09:01;97668.38;;;6.55;100.00
70304;BME280;57712;48.752;11.348;2022-11-14T12:11:31;97661.78;;;6.60;100.00
70304;BME280;57712;48.752;11.348;2022-11-14T12:16:45;97665.28;;;6.85;100.00
70304;BME280;57712;48.752;11.348;2022-11-14T12:25:02;97669.16;;;6.95;100.00
70304;BME280;57712;48.752;11.348;2022-11-14T12:30:28;97665.69;;;6.73;100.00
70304;BME280;57712;48.752;11.348;2022-11-14T12:35:36;97669.19;;;6.91;100.00
70304;BME280;57712;48.752;11.348;2022-11-14T12:38:13;97670.28;;;7.19;100.00
70304;BME280;57712;48.752;11.348;2022-11-14T12:40:57;97673.81;;;7.23;100.00
70304;BME280;57712;48.752;11.348;2022-11-14T12:43:36;97674.16;;;8.34;100.00
70304;BME280;57712;48.752;11.348;2022-11-14T12:46:08;97665.41;;;8.60;100.00
70304;BME280;57712;48.752;11.348;2022-11-14T12:48:46;97666.47;;;8.15;100.00
70304;BME280;57712;48.752;11.348;2022-11-14T12:53:57;97669.72;;;7.85;100.00
70304;BME280;57712;48.752;11.348;2022-11-14T12:56:46;97678.31;;;7.83;100.00
70304;BME280;57712;48.752;11.348;2022-11-14T13:10:11;97661.81;;;9.15;100.00
70304;BME280;57712;48.752;11.348;2022-11-14T13:13:04;97658.97;;;8.88;100.00
70304;BME280;57712;48.752;11.348;2022-11-14T13:15:50;97658.38;;;9.11;100.00
70304;BME280;57712;48.752;11.348;2022-11-14T13:18:52;97650.50;;;8.76;100.00
70304;BME280;57712;48.752;11.348;2022-11-14T13:21:37;97644.34;;;7.98;100.00
70304;BME280;57712;48.752;11.348;2022-11-14T13:24:17;97638.03;;;8.08;100.00
70304;BME280;57712;48.752;11.348;2022-11-14T13:26:45;97643.19;;;7.96;100.00
70304;BME280;57712;48.752;11.348;2022-11-14T13:32:10;97647.28;;;7.45;100.00
70304;BME280;57712;48.752;11.348;2022-11-14T13:34:49;97637.59;;;7.30;100.00
70304;BME280;57712;48.752;11.348;2022-11-14T13:40:13;97621.59;;;7.42;100.00
70304;BME280;57712;48.752;11.348;2022-11-14T13:42:53;97630.16;;;7.37;100.00
70304;BME280;57712;48.752;11.348;2022-11-14T13:51:03;97616.22;;;7.21;100.00
70304;BME280;57712;48.752;11.348;2022-11-14T13:53:51;97615.84;;;7.12;100.00
70304;BME280;57712;48.752;11.348;2022-11-14T14:07:20;97610.81;;;6.92;100.00
70304;BME280;57712;48.752;11.348;2022-11-14T14:20:30;97601.50;;;6.79;100.00
70304;BME280;57712;48.752;11.348;2022-11-14T14:31:16;97594.09;;;6.90;100.00
70304;BME280;57712;48.752;11.348;2022-11-14T14:33:46;97592.56;;;6.82;100.00
70304;BME280;57712;48.752;11.348;2022-11-14T14:38:43;97593.72;;;6.74;100.00
70304;BME280;57712;48.752;11.348;2022-11-14T14:41:10;97596.47;;;6.78;100.00